Time;durP1;ratioP1;P1;durP2;ratioP2;P2;SDS_P1;SDS_P2;PMS_P1;PMS_P2;Temp;Humidity;BMP_temperature;BMP_pressure;BME280_temperature;BME280_humidity;BME280_pressure;Samples;Min_cycle;Max_cycle;Signal;HPM_P1;HPM_P2
2024/02/03 00:10:30;;;;;;;24.47;15.10;;;5.50;99.90;;;;;;5532362;25;20256;-87
2024/02/03 00:35:18;;;;;;;17.90;12.10;;;5.70;99.90;;;;;;5865831;24;20198;-87
2024/02/03 00:49:55;;;;;;;19.30;10.23;;;5.80;99.90;;;;;;6087741;23;20193;31
2024/02/03 01:15:06;;;;;;;14.57;10.27;;;6.10;99.90;;;;;;5813152;24;20263;-84
2024/02/03 02:21:34;;;;;;;16.33;11.00;;;6.30;99.90;;;;;;5815332;24;20286;-84
2024/02/03 02:51:49;;;;;;;15.07;11.10;;;6.60;99.90;;;;;;6078222;23;20253;-86
2024/02/03 03:17:29;;;;;;;12.63;9.20;;;6.70;99.90;;;;;;5856669;24;20206;-85
2024/02/03 05:28:36;;;;;;;10.13;7.50;;;7.30;99.90;;;;;;5732424;24;20484;-87
2024/02/03 05:54:28;;;;;;;8.70;7.00;;;7.50;99.90;;;;;;5798544;24;20220;-84
2024/02/03 06:29:28;;;;;;;5.53;4.83;;;7.90;99.90;;;;;;5781797;24;20650;-84
2024/02/03 06:50:24;;;;;;;6.90;5.13;;;8.10;99.90;;;;;;6093770;23;20559;-86
2024/02/03 07:15:46;;;;;;;8.47;6.60;;;8.10;99.90;;;;;;6094337;23;20191;-88
2024/02/03 08:36:56;;;;;;;15.57;11.40;;;8.40;99.90;;;;;;4986817;28;20252;-84
2024/02/03 09:02:09;;;;;;;13.93;11.47;;;8.60;99.90;;;;;;4943170;28;20855;-86
2024/02/03 09:22:05;;;;;;;13.10;10.27;;;8.80;99.90;;;;;;4693486;29;20240;-84
2024/02/03 09:47:43;;;;;;;11.37;8.40;;;9.20;99.90;;;;;;4827221;29;20505;-84
2024/02/03 10:18:35;;;;;;;10.97;8.47;;;9.40;99.90;;;;;;4888025;28;20267;-85
2024/02/03 10:22:45;;;;;;;11.50;9.17;;;9.30;99.90;;;;;;4848577;28;20674;-83
2024/02/03 10:48:48;;;;;;;9.67;7.73;;;9.70;99.90;;;;;;4858089;28;20246;-84
2024/02/03 11:19:05;;;;;;;5.97;5.10;;;10.10;99.90;;;;;;4798786;29;20219;-86
2024/02/03 11:44:37;;;;;;;4.30;3.90;;;10.70;99.90;;;;;;4818514;29;20282;-85
2024/02/03 12:20:04;;;;;;;3.90;3.50;;;10.80;99.90;;;;;;4717742;30;20357;-87
2024/02/03 12:30:06;;;;;;;3.70;3.00;;;10.90;99.90;;;;;;5840912;23;20779;-83
2024/02/03 13:00:25;;;;;;;3.33;2.67;;;10.50;99.90;;;;;;4718832;29;20221;-87
2024/02/03 13:30:19;;;;;;;3.73;3.43;;;10.50;99.90;;;;;;4822284;29;20636;-86
2024/02/03 13:56:17;;;;;;;3.80;3.50;;;10.50;99.90;;;;;;4776098;29;20218;-85
2024/02/03 14:21:36;;;;;;;3.00;2.70;;;10.60;99.90;;;;;;4716039;29;20208;-86
2024/02/03 14:46:45;;;;;;;2.47;2.20;;;9.90;99.90;;;;;;4694006;30;20292;-86
2024/02/03 15:22:01;;;;;;;3.20;2.00;;;9.40;99.90;;;;;;4736892;29;20596;-84
2024/02/03 15:57:57;;;;;;;2.80;1.83;;;9.40;99.90;;;;;;4827280;29;20746;-89
2024/02/03 16:27:49;;;;;;;2.07;1.60;;;9.60;99.90;;;;;;4729962;29;20755;-88
2024/02/03 16:53:50;;;;;;;0.97;0.97;;;9.40;99.90;;;;;;4774014;29;20396;-84
2024/02/03 17:13:49;;;;;;;2.10;1.70;;;9.10;99.90;;;;;;4716745;29;20242;-85
2024/02/03 17:39:36;;;;;;;3.43;1.80;;;9.00;99.90;;;;;;4772631;29;20262;-84
2024/02/03 17:59:45;;;;;;;1.43;1.33;;;8.90;99.90;;;;;;4605671;30;20289;-85
2024/02/03 18:25:05;;;;;;;2.33;1.50;;;8.90;99.90;;;;;;4570400;30;20219;-86
2024/02/03 18:45:19;;;;;;;2.83;1.93;;;8.90;99.90;;;;;;4604592;30;20211;-86
2024/02/03 19:10:57;;;;;;;4.33;2.30;;;8.80;97.30;;;;;;4653865;30;20496;-86
2024/02/03 19:41:16;;;;;;;7.03;1.97;;;8.90;92.10;;;;;;4664630;30;20198;-87
2024/02/03 20:06:36;;;;;;;4.37;2.83;;;7.90;99.90;;;;;;4694864;29;20202;-87
2024/02/03 20:26:53;;;;;;;3.77;2.50;;;7.80;99.90;;;;;;4798729;29;20220;-86
2024/02/03 20:57:03;;;;;;;8.00;3.63;;;7.80;99.90;;;;;;4926542;28;20433;-87
2024/02/03 21:17:36;;;;;;;8.87;3.37;;;7.60;99.90;;;;;;4928793;28;20203;-86
2024/02/03 21:42:49;;;;;;;6.47;2.57;;;7.30;99.90;;;;;;4621778;30;20555;-88
2024/02/03 22:13:02;;;;;;;8.13;4.03;;;7.40;99.90;;;;;;4792585;28;20518;-85
2024/02/03 22:33:52;;;;;;;8.47;5.00;;;7.20;99.90;;;;;;4779116;29;20280;-85
2024/02/03 22:58:57;;;;;;;8.90;4.80;;;6.90;99.90;;;;;;4571869;30;20551;-83
2024/02/03 23:24:37;;;;;;;6.77;4.27;;;7.10;99.90;;;;;;4689531;29;20246;-85
2024/02/03 23:50:08;;;;;;;6.30;3.20;;;7.20;99.90;;;;;;4678735;29;20207;-83
2024/02/03 23:54:28;;;;;;;5.43;2.57;;;7.20;99.90;;;;;;4621184;30;20515;-85
